createdAt,value
2022-08-22T00:02:06.188Z,15.30
2022-08-22T00:02:41.978Z,20.02
2022-08-22T00:02:55.493Z,15.31
2022-08-22T00:04:41.405Z,15.28
2022-08-22T00:07:20.114Z,15.26
2022-08-22T00:10:09.305Z,15.24
2022-08-22T00:12:49.824Z,15.24
2022-08-22T00:15:43.668Z,15.26
2022-08-22T00:18:18.725Z,15.24
2022-08-22T00:20:56.712Z,15.26
2022-08-22T00:23:27.703Z,15.24
2022-08-22T00:25:58.811Z,15.21
2022-08-22T00:28:36.145Z,15.18
2022-08-22T00:31:08.984Z,15.16
2022-08-22T00:33:48.261Z,15.15
2022-08-22T00:36:18.836Z,15.16
2022-08-22T00:38:52.918Z,15.15
2022-08-22T00:41:41.566Z,15.17
2022-08-22T00:44:18.471Z,15.14
2022-08-22T00:47:06.641Z,15.15
2022-08-22T00:49:45.060Z,15.14
2022-08-22T00:52:17.427Z,15.14
2022-08-22T00:55:09.446Z,15.15
2022-08-22T00:57:44.960Z,15.18
2022-08-22T01:00:19.561Z,15.19
2022-08-22T01:03:01.256Z,15.20
2022-08-22T01:05:46.325Z,15.21
2022-08-22T01:08:39.178Z,15.20
2022-08-22T01:11:31.202Z,15.22
2022-08-22T01:14:34.548Z,15.22
2022-08-22T01:17:37.753Z,15.24
2022-08-22T01:20:20.690Z,15.25
2022-08-22T01:23:08.975Z,15.27
2022-08-22T01:26:13.076Z,15.28
2022-08-22T01:29:07.955Z,15.28
2022-08-22T01:31:42.691Z,15.28
2022-08-22T01:34:46.670Z,15.28
2022-08-22T01:37:41.763Z,15.26
2022-08-22T01:40:22.330Z,15.24
2022-08-22T01:42:52.948Z,15.22
2022-08-22T01:45:43.957Z,15.22
2022-08-22T01:48:41.377Z,15.22
2022-08-22T01:51:24.778Z,15.22
2022-08-22T01:54:09.345Z,15.24
2022-08-22T01:56:42.141Z,15.22
2022-08-22T01:59:12.899Z,15.17
2022-08-22T02:02:14.061Z,15.15
2022-08-22T02:04:53.781Z,15.14
2022-08-22T02:07:32.069Z,15.13
2022-08-22T02:10:09.985Z,15.12
2022-08-22T02:12:57.797Z,15.11
2022-08-22T02:15:39.426Z,15.13
2022-08-22T02:18:05.963Z,15.12
2022-08-22T02:20:57.487Z,15.12
2022-08-22T02:23:47.810Z,15.10
2022-08-22T02:26:21.015Z,15.09
2022-08-22T02:28:58.224Z,15.05
2022-08-22T02:31:35.922Z,15.02
2022-08-22T02:34:20.286Z,15.00
2022-08-22T02:37:09.327Z,15.00
2022-08-22T02:39:45.803Z,14.98
2022-08-22T02:42:24.535Z,15.00
2022-08-22T02:45:29.965Z,15.01
2022-08-22T02:48:20.000Z,15.01
2022-08-22T02:51:13.977Z,15.05
2022-08-22T02:54:14.253Z,15.04
2022-08-22T02:56:53.214Z,15.06
2022-08-22T02:59:32.268Z,15.06
2022-08-22T03:02:26.276Z,15.05
2022-08-22T03:04:56.789Z,15.01
2022-08-22T03:07:34.288Z,15.03
2022-08-22T03:10:13.584Z,15.02
2022-08-22T03:13:08.002Z,15.03
2022-08-22T03:15:49.255Z,15.03
2022-08-22T03:18:42.334Z,15.02
2022-08-22T03:21:18.411Z,15.02
2022-08-22T03:24:14.436Z,15.02
2022-08-22T03:27:10.246Z,15.00
2022-08-22T03:30:00.448Z,14.98
2022-08-22T03:33:12.822Z,14.97
2022-08-22T03:35:57.292Z,14.96
2022-08-22T03:38:32.741Z,14.95
2022-08-22T03:41:30.156Z,14.94
2022-08-22T03:44:37.708Z,14.92
2022-08-22T03:47:33.900Z,14.94
2022-08-22T03:50:23.588Z,14.96
2022-08-22T03:53:20.602Z,14.99
2022-08-22T03:56:10.233Z,15.01
2022-08-22T03:58:45.606Z,15.04
2022-08-22T04:01:49.610Z,15.09
2022-08-22T04:04:34.461Z,15.14
2022-08-22T04:07:31.594Z,15.16
2022-08-22T04:10:29.498Z,15.22
2022-08-22T04:13:10.753Z,15.25
2022-08-22T04:16:32.798Z,15.26
2022-08-22T04:19:39.256Z,15.27
2022-08-22T04:22:43.016Z,15.30
2022-08-22T04:25:19.869Z,15.33
2022-08-22T04:27:55.086Z,15.35
2022-08-22T04:30:24.565Z,15.39
2022-08-22T04:33:04.072Z,15.39
2022-08-22T04:36:01.284Z,15.41
2022-08-22T04:38:40.240Z,15.38
2022-08-22T04:41:14.864Z,15.41
2022-08-22T04:43:50.809Z,15.41
2022-08-22T04:46:43.351Z,15.43
2022-08-22T04:49:21.316Z,15.43
2022-08-22T04:51:57.276Z,15.43
2022-08-22T04:54:41.887Z,15.45
2022-08-22T04:57:21.198Z,15.48
2022-08-22T04:59:49.698Z,15.52
2022-08-22T05:02:26.599Z,15.54
2022-08-22T05:05:01.940Z,15.54
2022-08-22T05:07:35.997Z,15.53
2022-08-22T05:10:12.066Z,15.51
2022-08-22T05:12:45.873Z,15.51
2022-08-22T05:15:23.157Z,15.47
2022-08-22T05:17:53.385Z,15.47
2022-08-22T05:20:23.551Z,15.48
2022-08-22T05:22:55.529Z,15.55
2022-08-22T05:25:28.685Z,15.59
2022-08-22T05:28:06.092Z,15.66
2022-08-22T05:30:34.561Z,15.71
2022-08-22T05:33:26.572Z,15.74
2022-08-22T05:35:58.873Z,15.74
2022-08-22T05:38:32.244Z,15.70
2022-08-22T05:41:08.489Z,15.69
2022-08-22T05:43:39.188Z,15.68
2022-08-22T05:46:09.677Z,15.69
2022-08-22T05:48:45.604Z,15.74
2022-08-22T05:51:19.255Z,15.79
2022-08-22T05:53:51.025Z,15.83
2022-08-22T05:56:43.036Z,15.85
2022-08-22T05:59:32.505Z,15.86
2022-08-22T06:02:05.288Z,15.87
2022-08-22T06:04:37.460Z,15.92
2022-08-22T06:07:30.861Z,15.99
2022-08-22T06:10:14.612Z,16.05
2022-08-22T06:12:44.243Z,16.08
2022-08-22T06:15:21.219Z,16.15
2022-08-22T06:17:50.915Z,16.19
2022-08-22T06:20:23.122Z,16.21
2022-08-22T06:22:57.019Z,16.27
2022-08-22T06:25:32.033Z,16.37
2022-08-22T06:28:03.749Z,16.43
2022-08-22T06:30:31.086Z,16.50
2022-08-22T06:33:02.952Z,16.53
2022-08-22T06:35:41.663Z,16.64
2022-08-22T06:38:09.136Z,16.70
2022-08-22T06:40:35.708Z,16.78
2022-08-22T06:43:03.081Z,16.90
2022-08-22T06:45:32.859Z,17.03
2022-08-22T06:48:05.351Z,17.13
2022-08-22T06:50:42.517Z,17.23
2022-08-22T06:53:21.009Z,17.37
2022-08-22T06:55:53.759Z,17.47
2022-08-22T06:58:31.015Z,17.58
2022-08-22T07:01:11.718Z,17.78
2022-08-22T07:03:44.862Z,17.91
2022-08-22T07:06:17.058Z,18.18
2022-08-22T07:08:43.886Z,18.63
2022-08-22T07:11:25.961Z,19.19
2022-08-22T07:14:01.928Z,19.68
2022-08-22T07:16:33.613Z,20.25
2022-08-22T07:19:00.478Z,20.98
2022-08-22T07:21:30.215Z,21.81
2022-08-22T07:24:00.369Z,22.50
2022-08-22T07:26:52.780Z,23.39
2022-08-22T07:29:27.952Z,24.18
2022-08-22T07:32:09.746Z,24.56
2022-08-22T07:34:57.779Z,24.66
2022-08-22T07:37:37.101Z,24.59
2022-08-22T07:40:09.699Z,24.51
2022-08-22T07:42:56.364Z,24.34
2022-08-22T07:45:34.982Z,24.19
2022-08-22T07:48:10.796Z,24.06
2022-08-22T07:51:02.126Z,23.98
2022-08-22T07:53:41.443Z,23.95
2022-08-22T07:56:38.114Z,24.07
2022-08-22T07:59:12.958Z,24.18
2022-08-22T08:01:45.808Z,24.20
2022-08-22T08:04:17.616Z,24.36
2022-08-22T08:06:52.106Z,24.64
2022-08-22T08:09:19.741Z,25.16
2022-08-22T08:11:49.118Z,25.78
2022-08-22T08:14:16.427Z,26.27
2022-08-22T08:16:56.173Z,26.75
2022-08-22T08:19:23.543Z,27.19
2022-08-22T08:21:54.040Z,27.54
2022-08-22T08:24:26.439Z,27.78
2022-08-22T08:26:57.991Z,28.16
2022-08-22T08:29:24.629Z,28.77
2022-08-22T08:31:51.265Z,28.93
2022-08-22T08:34:24.026Z,29.29
2022-08-22T08:37:02.126Z,29.38
2022-08-22T08:39:37.688Z,28.92
2022-08-22T08:42:32.246Z,29.22
2022-08-22T08:45:07.657Z,29.46
2022-08-22T08:48:05.885Z,29.32
2022-08-22T08:50:50.820Z,29.47
2022-08-22T08:53:43.299Z,29.64
2022-08-22T08:56:28.755Z,29.75
2022-08-22T08:59:44.050Z,30.00
2022-08-22T09:02:34.975Z,29.85
2022-08-22T09:05:15.996Z,29.64
2022-08-22T09:08:00.787Z,29.78
2022-08-22T09:11:09.702Z,29.76
2022-08-22T09:14:05.905Z,30.04
2022-08-22T09:16:51.576Z,30.14
2022-08-22T09:19:46.352Z,30.03
2022-08-22T09:22:33.462Z,29.99
2022-08-22T09:25:38.608Z,29.66
2022-08-22T09:28:12.560Z,29.56
2022-08-22T09:34:35.145Z,29.42
2022-08-22T09:37:20.389Z,29.35
2022-08-22T09:39:51.777Z,28.97
2022-08-22T09:42:24.456Z,28.77
2022-08-22T09:45:22.312Z,28.84
2022-08-22T09:48:10.713Z,28.82
2022-08-22T09:51:28.750Z,28.75
2022-08-22T09:54:07.746Z,28.41
2022-08-22T09:56:42.440Z,28.36
2022-08-22T09:59:17.069Z,28.51
2022-08-22T10:01:55.869Z,28.39
2022-08-22T10:04:42.420Z,28.17
2022-08-22T10:07:30.976Z,28.24
2022-08-22T10:10:22.767Z,28.08
2022-08-22T10:13:21.200Z,28.07
2022-08-22T10:16:01.255Z,28.31
2022-08-22T10:18:52.555Z,28.31
2022-08-22T10:22:14.535Z,28.27
2022-08-22T10:24:47.905Z,28.70
2022-08-22T10:27:19.562Z,29.10
2022-08-22T10:30:11.436Z,29.38
2022-08-22T10:33:01.057Z,29.55
2022-08-22T10:35:34.469Z,29.78
2022-08-22T10:38:12.416Z,30.10
2022-08-22T10:40:43.507Z,30.23
2022-08-22T10:43:29.476Z,30.28
2022-08-22T10:46:06.798Z,30.12
2022-08-22T10:48:55.608Z,29.91
2022-08-22T10:51:36.772Z,29.91
2022-08-22T10:54:19.952Z,29.86
2022-08-22T10:56:49.769Z,29.56
2022-08-22T10:59:44.409Z,29.44
2022-08-22T11:02:31.914Z,29.41
2022-08-22T11:05:20.013Z,29.07
2022-08-22T11:08:08.268Z,28.87
2022-08-22T11:11:06.086Z,28.79
2022-08-22T11:13:32.369Z,28.77
2022-08-22T11:16:04.652Z,28.80
2022-08-22T11:18:44.327Z,28.89
2022-08-22T11:22:03.754Z,28.92
2022-08-22T11:24:55.369Z,28.96
2022-08-22T11:27:59.615Z,28.89
2022-08-22T11:30:51.325Z,28.88
2022-08-22T11:33:32.516Z,28.84
2022-08-22T11:36:27.840Z,29.07
2022-08-22T11:39:20.973Z,29.42
2022-08-22T11:42:11.367Z,29.53
2022-08-22T11:44:50.839Z,29.54
2022-08-22T11:47:20.467Z,29.68
2022-08-22T11:50:13.489Z,29.99
2022-08-22T11:53:09.079Z,30.14
2022-08-22T11:55:43.345Z,30.32
2022-08-22T11:58:18.891Z,30.45
2022-08-22T12:00:53.289Z,30.34
2022-08-22T12:03:42.897Z,30.32
2022-08-22T12:06:24.617Z,30.45
2022-08-22T12:09:24.160Z,30.66
2022-08-22T12:11:56.600Z,30.85
2022-08-22T12:14:49.265Z,30.87
2022-08-22T12:17:55.267Z,30.71
2022-08-22T12:20:53.276Z,30.45
2022-08-22T12:23:48.824Z,30.25
2022-08-22T12:26:55.038Z,30.00
2022-08-22T12:29:44.994Z,29.66
2022-08-22T12:32:43.917Z,29.16
2022-08-22T12:35:36.647Z,29.01
2022-08-22T12:38:29.179Z,29.06
2022-08-22T12:41:13.106Z,29.02
2022-08-22T12:43:51.690Z,29.08
2022-08-22T12:46:48.220Z,29.21
2022-08-22T12:49:21.465Z,29.21
2022-08-22T12:52:08.848Z,29.15
2022-08-22T12:54:47.560Z,29.06
2022-08-22T12:57:24.693Z,28.99
2022-08-22T13:00:01.934Z,28.97
2022-08-22T13:02:33.301Z,28.80
2022-08-22T13:05:11.476Z,28.54
2022-08-22T13:07:52.330Z,28.36
2022-08-22T13:10:40.354Z,28.24
2022-08-22T13:13:12.047Z,28.11
2022-08-22T13:15:42.469Z,28.20
2022-08-22T13:18:29.611Z,28.24
2022-08-22T13:21:00.841Z,28.26
2022-08-22T13:23:34.265Z,28.37
2022-08-22T13:26:09.018Z,28.43
2022-08-22T13:28:56.851Z,28.50
2022-08-22T13:31:38.957Z,28.63
2022-08-22T13:34:10.852Z,28.67
2022-08-22T13:36:51.595Z,28.44
2022-08-22T13:39:24.617Z,28.37
2022-08-22T13:41:53.192Z,28.30
2022-08-22T13:44:24.597Z,28.40
2022-08-22T13:47:12.644Z,28.33
2022-08-22T13:49:42.409Z,28.25
2022-08-22T13:52:29.322Z,28.28
2022-08-22T13:55:17.998Z,28.39
2022-08-22T13:58:02.718Z,28.31
2022-08-22T14:00:58.075Z,27.99
2022-08-22T14:03:49.206Z,27.87
2022-08-22T14:06:35.343Z,27.82
2022-08-22T14:09:32.027Z,27.89
2022-08-22T14:12:25.089Z,28.07
2022-08-22T14:14:57.756Z,28.27
2022-08-22T14:17:33.177Z,28.53
2022-08-22T14:20:08.185Z,28.84
2022-08-22T14:22:39.773Z,29.01
2022-08-22T14:25:26.752Z,29.24
2022-08-22T14:28:01.035Z,29.38
2022-08-22T14:30:38.828Z,29.40
2022-08-22T14:33:13.666Z,29.40
2022-08-22T14:35:52.748Z,29.33
2022-08-22T14:38:31.734Z,29.50
2022-08-22T14:41:25.002Z,29.56
2022-08-22T14:44:08.110Z,29.52
2022-08-22T14:46:44.592Z,29.47
2022-08-22T14:49:26.249Z,29.39
2022-08-22T14:52:09.630Z,29.35
2022-08-22T14:54:37.843Z,29.27
2022-08-22T14:57:12.684Z,29.17
2022-08-22T14:59:50.057Z,29.07
2022-08-22T15:02:27.888Z,28.78
2022-08-22T15:04:55.513Z,28.66
2022-08-22T15:07:34.968Z,28.62
2022-08-22T15:10:22.310Z,28.57
2022-08-22T15:12:52.619Z,28.43
2022-08-22T15:15:30.981Z,28.38
2022-08-22T15:17:58.873Z,28.36
2022-08-22T15:20:35.246Z,28.16
2022-08-22T15:23:09.782Z,28.13
2022-08-22T15:25:40.978Z,28.07
2022-08-22T15:28:20.419Z,27.98
2022-08-22T15:30:59.397Z,27.82
2022-08-22T15:33:36.049Z,27.69
2022-08-22T15:36:11.046Z,27.67
2022-08-22T15:38:47.990Z,27.64
2022-08-22T15:41:36.312Z,27.71
2022-08-22T15:44:31.072Z,27.74
2022-08-22T15:47:04.585Z,27.60
2022-08-22T15:49:36.685Z,27.70
2022-08-22T15:52:03.884Z,27.77
2022-08-22T15:54:51.105Z,27.79
2022-08-22T15:57:24.956Z,27.77
2022-08-22T16:00:00.203Z,27.75
2022-08-22T16:02:38.835Z,27.64
2022-08-22T16:05:11.401Z,27.43
2022-08-22T16:07:48.566Z,27.42
2022-08-22T16:10:23.992Z,27.41
2022-08-22T16:13:33.976Z,27.33
2022-08-22T16:16:26.655Z,27.20
2022-08-22T16:18:52.949Z,27.16
2022-08-22T16:21:22.039Z,27.17
2022-08-22T16:23:51.523Z,27.16
2022-08-22T16:26:24.484Z,27.15
2022-08-22T16:29:11.569Z,27.16
2022-08-22T16:31:48.220Z,27.10
2022-08-22T16:34:17.732Z,26.93
2022-08-22T16:36:53.340Z,26.85
2022-08-22T16:39:22.654Z,26.72
2022-08-22T16:41:51.828Z,26.64
2022-08-22T16:44:30.242Z,26.56
2022-08-22T16:47:35.143Z,26.53
2022-08-22T16:50:08.115Z,26.57
2022-08-22T16:52:37.488Z,26.57
2022-08-22T16:55:26.084Z,26.46
2022-08-22T16:58:32.360Z,26.38
2022-08-22T17:01:36.664Z,26.34
2022-08-22T17:04:15.324Z,26.37
2022-08-22T17:07:20.649Z,26.37
2022-08-22T17:10:13.796Z,26.32
2022-08-22T17:13:17.224Z,26.24
2022-08-22T17:15:58.176Z,26.17
2022-08-22T17:18:55.138Z,25.97
2022-08-22T17:21:38.115Z,25.90
2022-08-22T17:24:38.714Z,25.80
2022-08-22T17:27:17.812Z,25.73
2022-08-22T17:29:46.909Z,25.67
2022-08-22T17:32:40.364Z,25.63
2022-08-22T17:35:32.788Z,25.58
2022-08-22T17:37:59.349Z,25.47
2022-08-22T17:41:02.104Z,25.36
2022-08-22T17:43:48.988Z,25.25
2022-08-22T17:46:27.291Z,25.21
2022-08-22T17:49:02.191Z,25.12
2022-08-22T17:51:39.270Z,25.06
2022-08-22T17:54:14.613Z,24.98
2022-08-22T17:57:05.346Z,24.89
2022-08-22T17:59:39.560Z,24.79
2022-08-22T18:02:15.516Z,24.69
2022-08-22T18:04:50.352Z,24.58
2022-08-22T18:07:28.574Z,24.47
2022-08-22T18:10:15.157Z,24.33
2022-08-22T18:12:54.006Z,24.19
2022-08-22T18:15:29.597Z,24.01
2022-08-22T18:18:06.607Z,23.83
2022-08-22T18:21:15.411Z,23.63
2022-08-22T18:23:51.968Z,23.52
2022-08-22T18:26:24.161Z,23.40
2022-08-22T18:28:57.693Z,23.29
2022-08-22T18:31:49.185Z,23.21
2022-08-22T18:34:23.172Z,23.10
2022-08-22T18:36:57.304Z,23.08
2022-08-22T18:39:31.564Z,23.00
2022-08-22T18:42:08.969Z,22.93
2022-08-22T18:44:38.412Z,22.89
2022-08-22T18:47:35.163Z,22.84
2022-08-22T18:50:27.698Z,22.80
2022-08-22T18:52:57.442Z,22.73
2022-08-22T18:55:54.826Z,22.67
2022-08-22T18:58:43.887Z,22.62
2022-08-22T19:01:50.894Z,22.58
2022-08-22T19:04:45.896Z,22.53
2022-08-22T19:07:31.461Z,22.45
2022-08-22T19:10:10.103Z,22.39
2022-08-22T19:13:16.931Z,22.30
2022-08-22T19:15:55.338Z,22.24
2022-08-22T19:18:27.930Z,22.15
2022-08-22T19:21:24.677Z,22.05
2022-08-22T19:23:53.316Z,21.94
2022-08-22T19:26:37.014Z,21.88
2022-08-22T19:29:05.761Z,21.77
2022-08-22T19:31:37.247Z,21.69
2022-08-22T19:34:32.876Z,21.62
2022-08-22T19:37:11.330Z,21.51
2022-08-22T19:40:00.736Z,21.41
2022-08-22T19:42:27.220Z,21.32
2022-08-22T19:44:53.544Z,21.25
2022-08-22T19:47:19.837Z,21.16
2022-08-22T19:50:05.449Z,21.05
2022-08-22T19:52:37.946Z,20.95
2022-08-22T19:55:36.943Z,20.87
2022-08-22T19:58:12.172Z,20.81
2022-08-22T20:00:53.952Z,20.74
2022-08-22T20:04:17.814Z,20.69
2022-08-22T20:07:00.451Z,20.58
2022-08-22T20:09:41.881Z,20.50
2022-08-22T20:12:21.170Z,20.42
2022-08-22T20:14:48.343Z,20.34
2022-08-22T20:17:23.744Z,20.28
2022-08-22T20:20:18.327Z,20.18
2022-08-22T20:22:58.954Z,20.10
2022-08-22T20:25:48.348Z,20.02
2022-08-22T20:28:35.979Z,19.94
2022-08-22T20:31:07.254Z,19.86
2022-08-22T20:33:38.175Z,19.74
2022-08-22T20:36:18.530Z,19.67
2022-08-22T20:38:58.663Z,19.58
2022-08-22T20:41:38.722Z,19.49
2022-08-22T20:44:16.469Z,19.41
2022-08-22T20:46:58.047Z,19.33
2022-08-22T20:49:31.233Z,19.25
2022-08-22T20:52:01.584Z,19.18
2022-08-22T20:54:34.440Z,19.13
2022-08-22T20:57:17.077Z,19.08
2022-08-22T20:59:52.919Z,19.01
2022-08-22T21:02:39.381Z,18.93
2022-08-22T21:05:11.509Z,18.84
2022-08-22T21:07:45.229Z,18.76
2022-08-22T21:10:26.816Z,18.72
2022-08-22T21:13:30.441Z,18.68
2022-08-22T21:16:00.447Z,18.60
2022-08-22T21:18:32.757Z,18.54
2022-08-22T21:21:17.270Z,18.45
2022-08-22T21:23:48.021Z,18.33
2022-08-22T21:26:20.023Z,18.28
2022-08-22T21:28:49.360Z,18.19
2022-08-22T21:31:21.911Z,18.13
2022-08-22T21:33:50.661Z,18.07
2022-08-22T21:36:20.306Z,18.03
2022-08-22T21:38:53.649Z,17.99
2022-08-22T21:41:34.034Z,17.93
2022-08-22T21:44:19.193Z,17.88
2022-08-22T21:46:45.641Z,17.81
2022-08-22T21:49:24.865Z,17.75
2022-08-22T21:51:52.056Z,17.70
2022-08-22T21:54:38.143Z,17.64
2022-08-22T21:57:10.642Z,17.58
2022-08-22T21:59:52.110Z,17.52
2022-08-22T22:02:36.657Z,17.47
2022-08-22T22:05:13.292Z,17.45
2022-08-22T22:07:41.590Z,17.43
2022-08-22T22:10:10.960Z,17.40
2022-08-22T22:12:42.697Z,17.35
2022-08-22T22:15:14.099Z,17.32
2022-08-22T22:17:40.499Z,17.28
2022-08-22T22:20:07.669Z,17.25
2022-08-22T22:22:34.076Z,17.20
2022-08-22T22:25:04.444Z,17.17
2022-08-22T22:27:31.655Z,17.11
2022-08-22T22:29:58.157Z,17.07
2022-08-22T22:32:24.585Z,17.00
2022-08-22T22:34:50.957Z,16.92
2022-08-22T22:37:17.731Z,16.84
2022-08-22T22:39:44.318Z,16.75
2022-08-22T22:42:10.744Z,16.69
2022-08-22T22:44:37.154Z,16.63
2022-08-22T22:47:03.730Z,16.56
2022-08-22T22:49:31.960Z,16.53
2022-08-22T22:52:00.127Z,16.48
2022-08-22T22:54:27.211Z,16.46
2022-08-22T22:56:54.118Z,16.38
2022-08-22T22:59:24.630Z,16.35
2022-08-22T23:02:11.126Z,16.30
2022-08-22T23:04:40.128Z,16.25
2022-08-22T23:07:07.962Z,16.22
2022-08-22T23:09:38.748Z,16.18
2022-08-22T23:12:12.405Z,16.09
2022-08-22T23:14:39.150Z,16.03
2022-08-22T23:17:05.689Z,15.99
2022-08-22T23:19:32.884Z,15.95
2022-08-22T23:22:00.989Z,15.91
2022-08-22T23:24:29.065Z,15.88
2022-08-22T23:26:55.609Z,15.84
2022-08-22T23:29:22.045Z,15.84
2022-08-22T23:31:57.567Z,15.81
2022-08-22T23:34:28.665Z,15.75
2022-08-22T23:36:57.171Z,15.71
2022-08-22T23:39:25.332Z,15.67
2022-08-22T23:41:52.407Z,15.64
2022-08-22T23:44:22.977Z,15.59
2022-08-22T23:46:50.028Z,15.52
2022-08-22T23:49:16.645Z,15.49
2022-08-22T23:51:44.404Z,15.45
2022-08-22T23:54:11.592Z,15.40
2022-08-22T23:56:41.132Z,15.39
2022-08-22T23:59:11.249Z,15.38
